Aérodrome :
LOGIN :

S'inscrire | Disclaimer

   EN    FR    IT 

 










Légende :    VFR   VFR Marginal   IFR   IFR Intensif   IFR Très Intensif
Visi : 
Plafond : 
>= 8 km
>= 3000ft
5 à 8 km
1000 à 3000 ft
1500m à 5 km
500 à 1000 ft
800 à 1500m
200 à 500 ft
< 800m
< 200 ft
Symboles :   Orages  Brouillard  Fortes neiges  Fortes précipitations  Vent > 20 kt
SIGMETs :   Divers  Orages  Givrage  Turbulence  Onde Orograph.  Cendres Volcan.






- Altitude de l'aérodrome : 53 ft
- Code IATA : HAM


EDDH - Hamburg

DERNIER METAR :
  • 232150Z 26002KT 6000 NSC 01/M00 Q1026 BECMG 4000 BR BKN004

METARs EXPIRÉS :
  • 232120Z 24003KT 8000 FEW015 01/M00 Q1027 NOSIG
  • 232050Z VRB02KT 9000 FEW016 02/00 Q1027 NOSIG
  • 232020Z 28004KT 9999 FEW016 03/01 Q1027 NOSIG
  • 231950Z 27003KT 9999 FEW017 04/01 Q1027 NOSIG
  • 231920Z 24005KT 9999 FEW017 04/01 Q1027 NOSIG

TAF TAF EDDH
Valide du 23 à 18h jusqu'au 25 à 00h UTC


231700Z 2318/2424 23007KT 9999 BKN020
TEMPO 2320/2413 BKN008
PROB30
TEMPO 2323/2410 4000 BR
BECMG 2409/2411 BKN010
BECMG 2413/2415 OVC006
TEMPO 2415/2424 2500 -DZ OVC004



MET'MAP, la Météo Aéronautique d'un coup d'oeil ! - Copyright ORBIFLY Décembre 2007 - Disclaimer

ORBIFLY MET'MAP TEAM :

Programmation & Développement : Alexandra Zaïnal
Sur une idée originale de : Baudouin d'Aumeries
Assistance à la programmation : Marc-Olivier Méhu
Soutien technique & logistique : Manuel Goepfert

Contact : metmap@orbifly.com




SOURCES & CREDITS :

   NOAA